Time;durP1;ratioP1;P1;durP2;ratioP2;P2;SDS_P1;SDS_P2;PMS_P1;PMS_P2;Temp;Humidity;BMP_temperature;BMP_pressure;BME280_temperature;BME280_humidity;BME280_pressure;Samples;Min_cycle;Max_cycle;Signal;HPM_P1;HPM_P2
2024/01/13 00:01:48;;;;;;;;;;;;;;;;;;5032076;28;19983;-56
2024/01/13 00:04:14;;;;;;;;;;;;;;;;;;5032397;28;19917;-54
2024/01/13 00:06:40;;;;;;;;;;;;;;;;;;5032309;28;19967;-54
2024/01/13 00:09:06;;;;;;;;;;;;;;;;;;5032056;28;19917;-55
2024/01/13 00:11:32;;;;;;;;;;;;;;;;;;5021164;28;19957;-56
2024/01/13 00:13:58;;;;;;;;;;;;;;;;;;5012365;28;19959;-55
2024/01/13 00:16:24;;;;;;;;;;;;;;;;;;5032359;28;20277;-54
2024/01/13 00:18:50;;;;;;;;;;;;;;;;;;5023971;28;19910;-54
2024/01/13 00:21:16;;;;;;;;;;;;;;;;;;5020096;28;20011;-54
2024/01/13 00:23:42;;;;;;;;;;;;;;;;;;5011582;28;20373;-55
2024/01/13 00:26:08;;;;;;;;;;;;;;;;;;5024857;28;19968;-53
2024/01/13 00:28:33;;;;;;;;;;;;;;;;;;5015184;28;20278;-55
2024/01/13 00:30:59;;;;;;;;;;;;;;;;;;5013813;28;19913;-50
2024/01/13 00:33:25;;;;;;;;;;;;;;;;;;5029971;28;19913;-53
2024/01/13 00:35:51;;;;;;;;;;;;;;;;;;5032075;28;19924;-54
2024/01/13 00:38:17;;;;;;;;;;;;;;;;;;5031888;28;19910;-54
2024/01/13 00:40:44;;;;;;;;;;;;;;;;;;5030828;28;20350;-54
2024/01/13 00:43:10;;;;;;;;;;;;;;;;;;5023747;28;19976;-53
2024/01/13 00:45:35;;;;;;;;;;;;;;;;;;5012378;28;20333;-55
2024/01/13 00:48:01;;;;;;;;;;;;;;;;;;5018085;28;19921;-55
2024/01/13 00:50:27;;;;;;;;;;;;;;;;;;5023088;28;20008;-55
2024/01/13 00:52:53;;;;;;;;;;;;;;;;;;5021613;28;19917;-55
2024/01/13 00:55:19;;;;;;;;;;;;;;;;;;5020729;28;19917;-55
2024/01/13 00:57:45;;;;;;;;;;;;;;;;;;5028281;28;20392;-55
2024/01/13 01:00:11;;;;;;;;;;;;;;;;;;5014803;28;19957;-54
2024/01/13 01:02:37;;;;;;;;;;;;;;;;;;5012481;28;19913;-52
2024/01/13 01:05:03;;;;;;;;;;;;;;;;;;5010934;28;20452;-53
2024/01/13 01:07:28;;;;;;;;;;;;;;;;;;5031900;28;20046;-54
2024/01/13 01:09:54;;;;;;;;;;;;;;;;;;5035047;28;19913;-55
2024/01/13 01:12:20;;;;;;;;;;;;;;;;;;5032404;28;19920;-55
2024/01/13 01:14:46;;;;;;;;;;;;;;;;;;5019496;28;19909;-55
2024/01/13 01:17:13;;;;;;;;;;;;;;;;;;5035216;28;20447;-54
2024/01/13 01:19:39;;;;;;;;;;;;;;;;;;5034601;28;19940;-54
2024/01/13 01:22:05;;;;;;;;;;;;;;;;;;5035023;28;19913;-55
2024/01/13 01:24:31;;;;;;;;;;;;;;;;;;5024836;28;20396;-56
2024/01/13 01:26:57;;;;;;;;;;;;;;;;;;5035065;28;20000;-58
2024/01/13 01:29:23;;;;;;;;;;;;;;;;;;5034583;28;19917;-60
2024/01/13 01:31:49;;;;;;;;;;;;;;;;;;5028243;28;19952;-54
2024/01/13 01:34:15;;;;;;;;;;;;;;;;;;5029028;28;19928;-57
2024/01/13 01:36:41;;;;;;;;;;;;;;;;;;5019559;28;19918;-55
2024/01/13 01:39:09;;;;;;;;;;;;;;;;;;5015076;28;19909;-57
2024/01/13 01:41:35;;;;;;;;;;;;;;;;;;5001049;28;19921;-56
2024/01/13 01:44:01;;;;;;;;;;;;;;;;;;5042078;28;20611;-57
2024/01/13 01:46:27;;;;;;;;;;;;;;;;;;5042679;28;19913;-57
2024/01/13 01:48:53;;;;;;;;;;;;;;;;;;5034479;28;20313;-56
2024/01/13 01:51:19;;;;;;;;;;;;;;;;;;5039615;28;20008;-57
2024/01/13 01:53:45;;;;;;;;;;;;;;;;;;5054353;28;19922;-57
2024/01/13 01:56:11;;;;;;;;;;;;;;;;;;5045264;28;19917;-56
2024/01/13 01:58:37;;;;;;;;;;;;;;;;;;5041727;28;20344;-57
2024/01/13 02:01:03;;;;;;;;;;;;;;;;;;5053732;28;19909;-55
2024/01/13 02:03:29;;;;;;;;;;;;;;;;;;5054299;28;19916;-57
2024/01/13 02:05:55;;;;;;;;;;;;;;;;;;5046739;28;20391;-57
2024/01/13 02:08:21;;;;;;;;;;;;;;;;;;5034813;28;20010;-57
2024/01/13 02:10:49;;;;;;;;;;;;;;;;;;5032648;28;20385;-58
2024/01/13 02:13:15;;;;;;;;;;;;;;;;;;5039714;28;19917;-56
2024/01/13 02:15:41;;;;;;;;;;;;;;;;;;5050038;28;20332;-56
2024/01/13 02:18:07;;;;;;;;;;;;;;;;;;5054067;28;19970;-57
2024/01/13 02:20:33;;;;;;;;;;;;;;;;;;5053662;28;19908;-57
2024/01/13 02:22:59;;;;;;;;;;;;;;;;;;5051407;28;20015;-57
2024/01/13 02:25:24;;;;;;;;;;;;;;;;;;5052192;28;20398;-57
2024/01/13 02:27:50;;;;;;;;;;;;;;;;;;5052277;28;19913;-57
2024/01/13 02:30:16;;;;;;;;;;;;;;;;;;5053238;28;20296;-56
2024/01/13 02:32:42;;;;;;;;;;;;;;;;;;5047496;28;19948;-57
2024/01/13 02:35:08;;;;;;;;;;;;;;;;;;5033950;28;19909;-54
2024/01/13 02:37:34;;;;;;;;;;;;;;;;;;5051665;28;19919;-55
2024/01/13 02:40:00;;;;;;;;;;;;;;;;;;5050563;28;19923;-53
2024/01/13 02:42:26;;;;;;;;;;;;;;;;;;5042036;28;19967;-54
2024/01/13 02:44:52;;;;;;;;;;;;;;;;;;5033157;28;20385;-55
2024/01/13 02:47:18;;;;;;;;;;;;;;;;;;5016803;28;19980;-54
2024/01/13 02:49:43;;;;;;;;;;;;;;;;;;5013481;28;20286;-54
2024/01/13 02:52:09;;;;;;;;;;;;;;;;;;5024217;28;19916;-54
2024/01/13 02:54:35;;;;;;;;;;;;;;;;;;5031375;28;19960;-54
2024/01/13 02:57:01;;;;;;;;;;;;;;;;;;5033027;28;20008;-55
2024/01/13 02:59:27;;;;;;;;;;;;;;;;;;5028147;28;19917;-54
2024/01/13 03:01:53;;;;;;;;;;;;;;;;;;5043935;28;20016;-54
2024/01/13 03:04:19;;;;;;;;;;;;;;;;;;5018889;28;20297;-54
2024/01/13 03:06:45;;;;;;;;;;;;;;;;;;5016058;28;19918;-55
2024/01/13 03:09:12;;;;;;;;;;;;;;;;;;5025192;28;19959;-53
2024/01/13 03:11:38;;;;;;;;;;;;;;;;;;5019410;28;20610;-52
2024/01/13 03:14:04;;;;;;;;;;;;;;;;;;5024358;28;19996;-54
2024/01/13 03:16:30;;;;;;;;;;;;;;;;;;5018395;28;19913;-54
2024/01/13 03:18:56;;;;;;;;;;;;;;;;;;5022143;28;19920;-50
2024/01/13 03:21:22;;;;;;;;;;;;;;;;;;5020556;28;20293;-54
2024/01/13 03:23:48;;;;;;;;;;;;;;;;;;5022546;28;20325;-52
2024/01/13 03:26:14;;;;;;;;;;;;;;;;;;5023456;28;20004;-55
2024/01/13 03:28:40;;;;;;;;;;;;;;;;;;5028076;28;20317;-55
2024/01/13 03:31:06;;;;;;;;;;;;;;;;;;5019457;28;19952;-55
2024/01/13 03:33:31;;;;;;;;;;;;;;;;;;5032812;28;20003;-55
2024/01/13 03:35:57;;;;;;;;;;;;;;;;;;5032567;28;19913;-54
2024/01/13 03:38:25;;;;;;;;;;;;;;;;;;5032626;28;20370;-54
2024/01/13 03:40:51;;;;;;;;;;;;;;;;;;5032394;28;19920;-53
2024/01/13 03:43:16;;;;;;;;;;;;;;;;;;5032226;28;19964;-54
2024/01/13 03:45:42;;;;;;;;;;;;;;;;;;5029847;28;20324;-55
2024/01/13 03:48:08;;;;;;;;;;;;;;;;;;5019952;28;19999;-52
2024/01/13 03:50:34;;;;;;;;;;;;;;;;;;5016462;28;19917;-55
2024/01/13 03:53:00;;;;;;;;;;;;;;;;;;5012722;28;20372;-53
2024/01/13 03:55:26;;;;;;;;;;;;;;;;;;5027253;28;19920;-54
2024/01/13 03:57:52;;;;;;;;;;;;;;;;;;5028499;28;19917;-53
2024/01/13 04:00:19;;;;;;;;;;;;;;;;;;5018098;28;20028;-55
2024/01/13 04:02:45;;;;;;;;;;;;;;;;;;5028608;28;20389;-52
2024/01/13 04:05:11;;;;;;;;;;;;;;;;;;5011923;28;19920;-55
2024/01/13 04:07:37;;;;;;;;;;;;;;;;;;5023109;28;20004;-53
2024/01/13 04:10:02;;;;;;;;;;;;;;;;;;5021351;28;20354;-54
2024/01/13 04:12:28;;;;;;;;;;;;;;;;;;5022431;28;19914;-54
2024/01/13 04:14:54;;;;;;;;;;;;;;;;;;5021916;28;19917;-54
2024/01/13 04:17:20;;;;;;;;;;;;;;;;;;5026502;28;20012;-54
2024/01/13 04:19:46;;;;;;;;;;;;;;;;;;5012079;28;19913;-55
2024/01/13 04:22:12;;;;;;;;;;;;;;;;;;5023496;28;19924;-54
2024/01/13 04:24:38;;;;;;;;;;;;;;;;;;5024868;28;19948;-53
2024/01/13 04:27:04;;;;;;;;;;;;;;;;;;5031049;28;19996;-54
2024/01/13 04:29:30;;;;;;;;;;;;;;;;;;5021349;28;19928;-54
2024/01/13 04:31:56;;;;;;;;;;;;;;;;;;5029968;28;19920;-54
2024/01/13 04:34:22;;;;;;;;;;;;;;;;;;5027165;28;19964;-54
2024/01/13 04:36:48;;;;;;;;;;;;;;;;;;5012243;28;19918;-55
2024/01/13 04:39:14;;;;;;;;;;;;;;;;;;5015620;28;20477;-53
2024/01/13 04:41:41;;;;;;;;;;;;;;;;;;5032657;28;19917;-55
2024/01/13 04:44:07;;;;;;;;;;;;;;;;;;5035478;28;19944;-54
2024/01/13 04:46:33;;;;;;;;;;;;;;;;;;5022139;28;20444;-54
2024/01/13 04:48:59;;;;;;;;;;;;;;;;;;5034647;28;19919;-55
2024/01/13 04:51:25;;;;;;;;;;;;;;;;;;5035095;28;20385;-55
2024/01/13 04:53:50;;;;;;;;;;;;;;;;;;5033444;28;19921;-54
2024/01/13 04:56:16;;;;;;;;;;;;;;;;;;5034915;28;20335;-54
2024/01/13 04:58:42;;;;;;;;;;;;;;;;;;5023031;28;19913;-54
2024/01/13 05:01:08;;;;;;;;;;;;;;;;;;5028467;28;19948;-54
2024/01/13 05:03:34;;;;;;;;;;;;;;;;;;5018277;28;19948;-56
2024/01/13 05:06:00;;;;;;;;;;;;;;;;;;5034734;28;19992;-54
2024/01/13 05:08:26;;;;;;;;;;;;;;;;;;5028813;28;19913;-54
2024/01/13 05:10:52;;;;;;;;;;;;;;;;;;5032287;28;19966;-55
2024/01/13 05:13:18;;;;;;;;;;;;;;;;;;5031830;28;19913;-54
2024/01/13 05:15:44;;;;;;;;;;;;;;;;;;5034950;28;19913;-55
2024/01/13 05:18:09;;;;;;;;;;;;;;;;;;5032507;28;19913;-54
2024/01/13 05:20:35;;;;;;;;;;;;;;;;;;5033411;28;20340;-54
2024/01/13 05:23:01;;;;;;;;;;;;;;;;;;5034230;28;19927;-54
2024/01/13 05:25:27;;;;;;;;;;;;;;;;;;5028987;28;19913;-53
2024/01/13 05:27:53;;;;;;;;;;;;;;;;;;5029098;28;19921;-54
2024/01/13 05:30:19;;;;;;;;;;;;;;;;;;5032550;28;20031;-55
2024/01/13 05:32:45;;;;;;;;;;;;;;;;;;5027118;28;20388;-54
2024/01/13 05:35:11;;;;;;;;;;;;;;;;;;5039935;28;19915;-55
2024/01/13 05:37:37;;;;;;;;;;;;;;;;;;5035866;28;19923;-56
2024/01/13 05:40:04;;;;;;;;;;;;;;;;;;5040827;28;19921;-55
2024/01/13 05:42:30;;;;;;;;;;;;;;;;;;5034598;28;19928;-54
2024/01/13 05:44:56;;;;;;;;;;;;;;;;;;5034527;28;19945;-54
2024/01/13 05:47:22;;;;;;;;;;;;;;;;;;5033371;28;19949;-54
2024/01/13 05:49:48;;;;;;;;;;;;;;;;;;5031572;28;20377;-53
2024/01/13 05:52:14;;;;;;;;;;;;;;;;;;5033977;28;19913;-54
2024/01/13 05:54:39;;;;;;;;;;;;;;;;;;5034486;28;20289;-55
2024/01/13 05:57:05;;;;;;;;;;;;;;;;;;5033383;28;20008;-54
2024/01/13 05:59:31;;;;;;;;;;;;;;;;;;5033244;28;19964;-56
2024/01/13 06:01:57;;;;;;;;;;;;;;;;;;5032755;28;19945;-55
2024/01/13 06:04:23;;;;;;;;;;;;;;;;;;5028715;28;19916;-56
2024/01/13 06:06:49;;;;;;;;;;;;;;;;;;5031733;28;19919;-53
2024/01/13 06:09:15;;;;;;;;;;;;;;;;;;5029326;28;20373;-51
2024/01/13 06:11:41;;;;;;;;;;;;;;;;;;5033958;28;20016;-53
2024/01/13 06:14:07;;;;;;;;;;;;;;;;;;5025518;28;20276;-55
2024/01/13 06:16:33;;;;;;;;;;;;;;;;;;5033378;28;19991;-55
2024/01/13 06:18:58;;;;;;;;;;;;;;;;;;5027641;28;19997;-52
2024/01/13 06:21:24;;;;;;;;;;;;;;;;;;5034795;28;20155;-53
2024/01/13 06:23:50;;;;;;;;;;;;;;;;;;5031541;28;20012;-52
2024/01/13 06:26:16;;;;;;;;;;;;;;;;;;5033799;28;20405;-53
2024/01/13 06:28:42;;;;;;;;;;;;;;;;;;5025961;28;19995;-54
2024/01/13 06:31:08;;;;;;;;;;;;;;;;;;5030787;28;19913;-54
2024/01/13 06:33:34;;;;;;;;;;;;;;;;;;5026803;28;19913;-55
2024/01/13 06:36:00;;;;;;;;;;;;;;;;;;5031864;28;19913;-54
2024/01/13 06:38:26;;;;;;;;;;;;;;;;;;5032843;28;20031;-54
2024/01/13 06:40:52;;;;;;;;;;;;;;;;;;5021928;28;20353;-53
2024/01/13 06:43:18;;;;;;;;;;;;;;;;;;5033283;28;20007;-54
2024/01/13 06:45:43;;;;;;;;;;;;;;;;;;5033116;28;19909;-52
2024/01/13 06:48:10;;;;;;;;;;;;;;;;;;5033095;28;19916;-54
2024/01/13 06:50:36;;;;;;;;;;;;;;;;;;5019336;28;20379;-54
2024/01/13 06:53:02;;;;;;;;;;;;;;;;;;5029977;28;19913;-54
2024/01/13 06:55:28;;;;;;;;;;;;;;;;;;5030897;28;19967;-54
2024/01/13 06:57:54;;;;;;;;;;;;;;;;;;5033238;28;19913;-53
2024/01/13 07:00:20;;;;;;;;;;;;;;;;;;5031572;28;19921;-56
2024/01/13 07:02:45;;;;;;;;;;;;;;;;;;5028596;28;20004;-55
2024/01/13 07:05:12;;;;;;;;;;;;;;;;;;5031331;28;19999;-54
2024/01/13 07:07:38;;;;;;;;;;;;;;;;;;5022586;28;19914;-53
2024/01/13 07:10:04;;;;;;;;;;;;;;;;;;5029717;28;19909;-54
2024/01/13 07:12:30;;;;;;;;;;;;;;;;;;5023729;28;19973;-54
2024/01/13 07:14:56;;;;;;;;;;;;;;;;;;5025222;28;19971;-54
2024/01/13 07:17:22;;;;;;;;;;;;;;;;;;5027740;28;19919;-54
2024/01/13 07:19:48;;;;;;;;;;;;;;;;;;5034138;28;19913;-53
2024/01/13 07:22:14;;;;;;;;;;;;;;;;;;5041006;28;20285;-54
2024/01/13 07:24:40;;;;;;;;;;;;;;;;;;5021265;28;20016;-55
2024/01/13 07:27:06;;;;;;;;;;;;;;;;;;5024806;28;20459;-55
2024/01/13 07:29:32;;;;;;;;;;;;;;;;;;5025314;28;19913;-55
2024/01/13 07:31:58;;;;;;;;;;;;;;;;;;5030660;28;19960;-54
2024/01/13 07:34:23;;;;;;;;;;;;;;;;;;5028876;28;19974;-57
2024/01/13 07:36:49;;;;;;;;;;;;;;;;;;5030420;28;19917;-56
2024/01/13 07:39:15;;;;;;;;;;;;;;;;;;5024225;28;19917;-57
2024/01/13 07:41:43;;;;;;;;;;;;;;;;;;5022032;28;19924;-55
2024/01/13 07:44:09;;;;;;;;;;;;;;;;;;5028135;28;20031;-57
2024/01/13 07:46:36;;;;;;;;;;;;;;;;;;5023958;28;19972;-56
2024/01/13 07:49:02;;;;;;;;;;;;;;;;;;5026986;28;19913;-55
2024/01/13 07:51:28;;;;;;;;;;;;;;;;;;5024153;28;19967;-57
2024/01/13 07:53:54;;;;;;;;;;;;;;;;;;5030989;28;19917;-57
2024/01/13 07:56:20;;;;;;;;;;;;;;;;;;5025894;28;20026;-57
2024/01/13 07:58:46;;;;;;;;;;;;;;;;;;5025175;28;19996;-54
2024/01/13 08:01:12;;;;;;;;;;;;;;;;;;5021808;28;19957;-57
2024/01/13 08:03:38;;;;;;;;;;;;;;;;;;5024522;28;19924;-57
2024/01/13 08:06:04;;;;;;;;;;;;;;;;;;5031035;28;19976;-56
2024/01/13 08:08:30;;;;;;;;;;;;;;;;;;5020628;28;20035;-56
2024/01/13 08:10:56;;;;;;;;;;;;;;;;;;5032456;28;20380;-57
2024/01/13 08:13:22;;;;;;;;;;;;;;;;;;5029160;28;19928;-56
2024/01/13 08:15:48;;;;;;;;;;;;;;;;;;5031589;28;20005;-56
2024/01/13 08:18:14;;;;;;;;;;;;;;;;;;5034938;28;19913;-56
2024/01/13 08:20:40;;;;;;;;;;;;;;;;;;5035006;28;19913;-57
2024/01/13 08:23:06;;;;;;;;;;;;;;;;;;5030142;28;19959;-56
2024/01/13 08:25:32;;;;;;;;;;;;;;;;;;5034643;28;20262;-57
2024/01/13 08:27:58;;;;;;;;;;;;;;;;;;5025344;28;19961;-55
2024/01/13 08:30:24;;;;;;;;;;;;;;;;;;5025906;28;19919;-57
2024/01/13 08:32:50;;;;;;;;;;;;;;;;;;5031944;28;19913;-56
2024/01/13 08:35:15;;;;;;;;;;;;;;;;;;5036243;28;19952;-54
2024/01/13 08:37:41;;;;;;;;;;;;;;;;;;5044246;28;19913;-56
2024/01/13 08:40:08;;;;;;;;;;;;;;;;;;5033960;28;19923;-58
2024/01/13 08:42:37;;;;;;;;;;;;;;;;;;5062319;28;19929;-57
2024/01/13 08:45:03;;;;;;;;;;;;;;;;;;5056595;28;19920;-56
2024/01/13 08:47:29;;;;;;;;;;;;;;;;;;5059556;28;20806;-53
2024/01/13 08:49:55;;;;;;;;;;;;;;;;;;5053687;28;19924;-50
2024/01/13 08:52:21;;;;;;;;;;;;;;;;;;5056363;28;19917;-51
2024/01/13 08:54:47;;;;;;;;;;;;;;;;;;5048074;28;20004;-52
2024/01/13 08:57:13;;;;;;;;;;;;;;;;;;5043782;28;19913;-50
2024/01/13 08:59:39;;;;;;;;;;;;;;;;;;5047838;28;19913;-53
2024/01/13 09:02:06;;;;;;;;;;;;;;;;;;5053050;28;19971;-50
2024/01/13 09:04:32;;;;;;;;;;;;;;;;;;5054128;28;19924;-52
2024/01/13 09:06:58;;;;;;;;;;;;;;;;;;5050116;28;19921;-52
2024/01/13 09:09:24;;;;;;;;;;;;;;;;;;5045450;28;19959;-52
2024/01/13 09:11:50;;;;;;;;;;;;;;;;;;5047104;28;20375;-52
2024/01/13 09:14:16;;;;;;;;;;;;;;;;;;5050171;28;19959;-51
2024/01/13 09:16:42;;;;;;;;;;;;;;;;;;5052697;28;19927;-53
2024/01/13 09:19:11;;;;;;;;;;;;;;;;;;5054119;28;19964;-52
2024/01/13 09:21:37;;;;;;;;;;;;;;;;;;5051835;28;20003;-49
2024/01/13 09:24:03;;;;;;;;;;;;;;;;;;5048325;28;19925;-51
2024/01/13 09:26:30;;;;;;;;;;;;;;;;;;5049765;28;19986;-49
2024/01/13 09:28:56;;;;;;;;;;;;;;;;;;5047381;28;19962;-51
2024/01/13 09:31:22;;;;;;;;;;;;;;;;;;5048477;28;19917;-52
2024/01/13 09:33:48;;;;;;;;;;;;;;;;;;5051885;28;19923;-52
2024/01/13 09:36:14;;;;;;;;;;;;;;;;;;5046508;28;19956;-53
2024/01/13 09:38:40;;;;;;;;;;;;;;;;;;5052806;28;19912;-52
2024/01/13 09:41:06;;;;;;;;;;;;;;;;;;5051909;28;19955;-49
2024/01/13 09:43:32;;;;;;;;;;;;;;;;;;5043833;28;19921;-49
2024/01/13 09:45:58;;;;;;;;;;;;;;;;;;5038714;28;19957;-54
2024/01/13 09:48:23;;;;;;;;;;;;;;;;;;5029249;28;19993;-56
2024/01/13 09:50:50;;;;;;;;;;;;;;;;;;5033068;28;19971;-54
2024/01/13 09:53:16;;;;;;;;;;;;;;;;;;5038375;28;19967;-54
2024/01/13 09:55:42;;;;;;;;;;;;;;;;;;5037142;28;20322;-54
2024/01/13 09:58:08;;;;;;;;;;;;;;;;;;5040468;28;19923;-56
2024/01/13 10:00:34;;;;;;;;;;;;;;;;;;5040741;28;20284;-53
2024/01/13 10:03:00;;;;;;;;;;;;;;;;;;5038073;28;20043;-53
2024/01/13 10:05:26;;;;;;;;;;;;;;;;;;5037102;28;19917;-56
2024/01/13 10:07:51;;;;;;;;;;;;;;;;;;5037223;28;19964;-55
2024/01/13 10:10:17;;;;;;;;;;;;;;;;;;5035082;28;19958;-55
2024/01/13 10:12:43;;;;;;;;;;;;;;;;;;5036881;28;19963;-55
2024/01/13 10:15:09;;;;;;;;;;;;;;;;;;5042904;28;20380;-55
2024/01/13 10:17:35;;;;;;;;;;;;;;;;;;5038927;28;19964;-56
2024/01/13 10:20:01;;;;;;;;;;;;;;;;;;5033153;28;19967;-56
2024/01/13 10:22:27;;;;;;;;;;;;;;;;;;5030035;28;19939;-56
2024/01/13 10:24:53;;;;;;;;;;;;;;;;;;5027711;28;19917;-54
2024/01/13 10:27:19;;;;;;;;;;;;;;;;;;5015720;28;19968;-55
2024/01/13 10:29:45;;;;;;;;;;;;;;;;;;5019457;28;20373;-55
2024/01/13 10:32:12;;;;;;;;;;;;;;;;;;5013891;28;19914;-56
2024/01/13 10:34:41;;;;;;;;;;;;;;;;;;5028720;28;20441;-56
2024/01/13 10:37:07;;;;;;;;;;;;;;;;;;5019865;28;20392;-56
2024/01/13 10:39:33;;;;;;;;;;;;;;;;;;5028914;28;20036;-56
2024/01/13 10:41:59;;;;;;;;;;;;;;;;;;5025398;28;19964;-54
2024/01/13 10:44:25;;;;;;;;;;;;;;;;;;5027513;28;19925;-56
2024/01/13 10:46:51;;;;;;;;;;;;;;;;;;5023680;28;19921;-56
2024/01/13 10:49:17;;;;;;;;;;;;;;;;;;5028271;28;19913;-55
2024/01/13 10:51:43;;;;;;;;;;;;;;;;;;5032544;28;19927;-54
2024/01/13 10:54:09;;;;;;;;;;;;;;;;;;5030430;28;19920;-55
2024/01/13 10:56:36;;;;;;;;;;;;;;;;;;5027845;28;20011;-56
2024/01/13 10:59:01;;;;;;;;;;;;;;;;;;5032127;28;19928;-56
2024/01/13 11:01:27;;;;;;;;;;;;;;;;;;5032917;28;19921;-55
2024/01/13 11:03:53;;;;;;;;;;;;;;;;;;5037205;28;20417;-54
2024/01/13 11:06:19;;;;;;;;;;;;;;;;;;5039668;28;19917;-56
2024/01/13 11:08:45;;;;;;;;;;;;;;;;;;5035694;28;20324;-57
2024/01/13 11:11:11;;;;;;;;;;;;;;;;;;5034073;28;20384;-56
2024/01/13 11:13:37;;;;;;;;;;;;;;;;;;5030907;28;19962;-56
2024/01/13 11:16:04;;;;;;;;;;;;;;;;;;5031490;28;19928;-57
2024/01/13 11:18:30;;;;;;;;;;;;;;;;;;5031589;28;20377;-57
2024/01/13 11:20:56;;;;;;;;;;;;;;;;;;5031598;28;19919;-57
2024/01/13 11:23:22;;;;;;;;;;;;;;;;;;5030796;28;19960;-56
2024/01/13 11:25:48;;;;;;;;;;;;;;;;;;5028952;28;19992;-57
2024/01/13 11:28:14;;;;;;;;;;;;;;;;;;5024669;28;19931;-56
2024/01/13 11:30:40;;;;;;;;;;;;;;;;;;5030769;28;20353;-53
2024/01/13 11:33:06;;;;;;;;;;;;;;;;;;5036316;28;20369;-57
2024/01/13 11:35:32;;;;;;;;;;;;;;;;;;5035947;28;20392;-56
2024/01/13 11:37:58;;;;;;;;;;;;;;;;;;5030151;28;20112;-57
2024/01/13 11:40:24;;;;;;;;;;;;;;;;;;5040462;28;19920;-56
2024/01/13 11:42:50;;;;;;;;;;;;;;;;;;5031318;28;19961;-57
2024/01/13 11:45:16;;;;;;;;;;;;;;;;;;5031478;28;20057;-57
2024/01/13 11:47:42;;;;;;;;;;;;;;;;;;5026120;28;19978;-56
2024/01/13 11:50:08;;;;;;;;;;;;;;;;;;5025354;28;19920;-57
2024/01/13 11:52:34;;;;;;;;;;;;;;;;;;5031757;28;19936;-57
2024/01/13 11:55:00;;;;;;;;;;;;;;;;;;5038860;28;19963;-57
2024/01/13 11:57:26;;;;;;;;;;;;;;;;;;5029538;28;19997;-56
2024/01/13 11:59:52;;;;;;;;;;;;;;;;;;5025675;28;19956;-57
2024/01/13 12:02:18;;;;;;;;;;;;;;;;;;5021705;28;19917;-57
2024/01/13 12:04:49;;;;;;;;;;;;;;;;;;5027211;28;20047;-53
2024/01/13 12:07:15;;;;;;;;;;;;;;;;;;5019181;28;20357;-54
2024/01/13 12:09:41;;;;;;;;;;;;;;;;;;5026132;28;19996;-54
2024/01/13 12:12:07;;;;;;;;;;;;;;;;;;5030671;28;19913;-55
2024/01/13 12:14:33;;;;;;;;;;;;;;;;;;5022736;28;19966;-56
2024/01/13 12:16:59;;;;;;;;;;;;;;;;;;5023837;28;19913;-56
2024/01/13 12:19:24;;;;;;;;;;;;;;;;;;5029437;28;20242;-56
2024/01/13 12:21:50;;;;;;;;;;;;;;;;;;5016104;28;20491;-56
2024/01/13 12:24:16;;;;;;;;;;;;;;;;;;5023932;28;20393;-57
2024/01/13 12:26:43;;;;;;;;;;;;;;;;;;5030455;28;19917;-56
2024/01/13 12:29:09;;;;;;;;;;;;;;;;;;5029391;28;19920;-57
2024/01/13 12:31:35;;;;;;;;;;;;;;;;;;5020117;28;19945;-57
2024/01/13 12:34:01;;;;;;;;;;;;;;;;;;5026161;28;20476;-57
2024/01/13 12:36:27;;;;;;;;;;;;;;;;;;5028067;28;19913;-56
2024/01/13 12:38:53;;;;;;;;;;;;;;;;;;5018153;28;19921;-57
2024/01/13 12:41:18;;;;;;;;;;;;;;;;;;5026822;28;19955;-56
2024/01/13 12:43:44;;;;;;;;;;;;;;;;;;5030135;28;19913;-56
2024/01/13 12:46:10;;;;;;;;;;;;;;;;;;5029642;28;20387;-55
2024/01/13 12:48:36;;;;;;;;;;;;;;;;;;5018708;28;19972;-56
2024/01/13 12:51:02;;;;;;;;;;;;;;;;;;5030975;28;19920;-56
2024/01/13 12:53:28;;;;;;;;;;;;;;;;;;5023509;28;19969;-56
2024/01/13 12:55:54;;;;;;;;;;;;;;;;;;5031101;28;19949;-56
2024/01/13 12:58:20;;;;;;;;;;;;;;;;;;5024441;28;20428;-55
2024/01/13 13:00:46;;;;;;;;;;;;;;;;;;5029971;28;20016;-57
2024/01/13 13:03:12;;;;;;;;;;;;;;;;;;5032261;28;19913;-54
2024/01/13 13:05:37;;;;;;;;;;;;;;;;;;5038994;28;19914;-56
2024/01/13 13:08:03;;;;;;;;;;;;;;;;;;5033261;28;19955;-56
2024/01/13 13:10:29;;;;;;;;;;;;;;;;;;5034251;28;20315;-57
2024/01/13 13:12:59;;;;;;;;;;;;;;;;;;5034160;28;19974;-56
2024/01/13 13:15:25;;;;;;;;;;;;;;;;;;5034312;28;19920;-51
2024/01/13 13:17:51;;;;;;;;;;;;;;;;;;5029393;28;20007;-51
2024/01/13 13:20:17;;;;;;;;;;;;;;;;;;5031050;28;20400;-51
2024/01/13 13:22:43;;;;;;;;;;;;;;;;;;5032982;28;19966;-52
2024/01/13 13:25:09;;;;;;;;;;;;;;;;;;5042183;28;19949;-50
2024/01/13 13:27:35;;;;;;;;;;;;;;;;;;5033990;28;19927;-51
2024/01/13 13:30:00;;;;;;;;;;;;;;;;;;5033150;28;20340;-51
2024/01/13 13:32:26;;;;;;;;;;;;;;;;;;5033761;28;20024;-49
2024/01/13 13:34:52;;;;;;;;;;;;;;;;;;5031009;28;19921;-53
2024/01/13 13:37:18;;;;;;;;;;;;;;;;;;5026817;28;20384;-52
2024/01/13 13:39:44;;;;;;;;;;;;;;;;;;5030032;28;19917;-52
2024/01/13 13:42:10;;;;;;;;;;;;;;;;;;5026527;28;19921;-50
2024/01/13 13:44:37;;;;;;;;;;;;;;;;;;5032430;28;20036;-52
2024/01/13 13:47:03;;;;;;;;;;;;;;;;;;5028174;28;19913;-49
2024/01/13 13:49:29;;;;;;;;;;;;;;;;;;5039060;28;19995;-51
2024/01/13 13:51:57;;;;;;;;;;;;;;;;;;5038966;28;19935;-52
2024/01/13 13:54:23;;;;;;;;;;;;;;;;;;5017688;28;19913;-51
2024/01/13 13:56:48;;;;;;;;;;;;;;;;;;5029681;28;20014;-50
2024/01/13 13:59:15;;;;;;;;;;;;;;;;;;5029521;28;19916;-54
2024/01/13 14:01:41;;;;;;;;;;;;;;;;;;5033253;28;19913;-51
2024/01/13 14:04:08;;;;;;;;;;;;;;;;;;5032024;28;19925;-50
2024/01/13 14:06:35;;;;;;;;;;;;;;;;;;5033829;28;19921;-52
2024/01/13 14:09:01;;;;;;;;;;;;;;;;;;5035632;28;19936;-52
2024/01/13 14:11:27;;;;;;;;;;;;;;;;;;5037676;28;19921;-52
2024/01/13 14:13:53;;;;;;;;;;;;;;;;;;5028725;28;19917;-52
2024/01/13 14:16:20;;;;;;;;;;;;;;;;;;5032375;28;20266;-52
2024/01/13 14:18:50;;;;;;;;;;;;;;;;;;5033016;28;19917;-50
2024/01/13 14:21:16;;;;;;;;;;;;;;;;;;5032954;28;20007;-52
2024/01/13 14:23:41;;;;;;;;;;;;;;;;;;5033463;28;20059;-51
2024/01/13 14:26:07;;;;;;;;;;;;;;;;;;5023485;28;19914;-55
2024/01/13 14:28:33;;;;;;;;;;;;;;;;;;5027413;28;19952;-55
2024/01/13 14:31:00;;;;;;;;;;;;;;;;;;5028351;28;20270;-54
2024/01/13 14:33:26;;;;;;;;;;;;;;;;;;5029796;28;19951;-54
2024/01/13 14:35:52;;;;;;;;;;;;;;;;;;5035659;28;19952;-50
2024/01/13 14:38:18;;;;;;;;;;;;;;;;;;5035578;28;19921;-50
2024/01/13 14:40:44;;;;;;;;;;;;;;;;;;5032373;28;19955;-50
2024/01/13 14:43:10;;;;;;;;;;;;;;;;;;5032749;28;20373;-51
2024/01/13 14:45:36;;;;;;;;;;;;;;;;;;5032740;28;20004;-49
2024/01/13 14:48:02;;;;;;;;;;;;;;;;;;5030860;28;19998;-51
2024/01/13 14:50:28;;;;;;;;;;;;;;;;;;5032076;28;20288;-50
2024/01/13 14:52:54;;;;;;;;;;;;;;;;;;5032190;28;20007;-50
2024/01/13 14:55:19;;;;;;;;;;;;;;;;;;5033274;28;19917;-49
2024/01/13 14:57:45;;;;;;;;;;;;;;;;;;5031860;28;19928;-52
2024/01/13 15:00:13;;;;;;;;;;;;;;;;;;5031821;28;19960;-49
2024/01/13 15:02:39;;;;;;;;;;;;;;;;;;5031873;28;20015;-52
2024/01/13 15:05:05;;;;;;;;;;;;;;;;;;5030224;28;19917;-52
2024/01/13 15:07:31;;;;;;;;;;;;;;;;;;5032286;28;19959;-52
2024/01/13 15:09:57;;;;;;;;;;;;;;;;;;5031613;28;20365;-49
2024/01/13 15:12:22;;;;;;;;;;;;;;;;;;5032021;28;19947;-50
2024/01/13 15:14:48;;;;;;;;;;;;;;;;;;5032369;28;19956;-49
2024/01/13 15:17:14;;;;;;;;;;;;;;;;;;5032924;28;19915;-52
2024/01/13 15:19:40;;;;;;;;;;;;;;;;;;5032796;28;20357;-49
2024/01/13 15:22:06;;;;;;;;;;;;;;;;;;5047880;28;20006;-51
2024/01/13 15:24:32;;;;;;;;;;;;;;;;;;5032632;28;20274;-51
2024/01/13 15:26:58;;;;;;;;;;;;;;;;;;5032215;28;19909;-48
2024/01/13 15:29:27;;;;;;;;;;;;;;;;;;5037508;28;19967;-49
2024/01/13 15:31:53;;;;;;;;;;;;;;;;;;5040575;28;19935;-51
2024/01/13 15:34:19;;;;;;;;;;;;;;;;;;5032429;28;20004;-57
2024/01/13 15:36:45;;;;;;;;;;;;;;;;;;5040647;28;19967;-57
2024/01/13 15:39:14;;;;;;;;;;;;;;;;;;5034316;28;19928;-56
2024/01/13 15:41:40;;;;;;;;;;;;;;;;;;5030309;28;20412;-57
2024/01/13 15:44:08;;;;;;;;;;;;;;;;;;5032484;28;19961;-51
2024/01/13 15:46:36;;;;;;;;;;;;;;;;;;5031655;28;21542;-54
2024/01/13 15:49:02;;;;;;;;;;;;;;;;;;5030057;28;19920;-55
2024/01/13 15:51:28;;;;;;;;;;;;;;;;;;5023989;28;19909;-52
2024/01/13 15:53:54;;;;;;;;;;;;;;;;;;5026591;28;19948;-55
2024/01/13 15:56:20;;;;;;;;;;;;;;;;;;5031784;28;19955;-56
2024/01/13 15:58:46;;;;;;;;;;;;;;;;;;5029584;28;20278;-56
2024/01/13 16:01:12;;;;;;;;;;;;;;;;;;5032049;28;19967;-55
2024/01/13 16:03:38;;;;;;;;;;;;;;;;;;5040742;28;19965;-55
2024/01/13 16:06:04;;;;;;;;;;;;;;;;;;5032387;28;19976;-56
2024/01/13 16:08:30;;;;;;;;;;;;;;;;;;5026671;28;19909;-53
2024/01/13 16:10:56;;;;;;;;;;;;;;;;;;5036908;28;19917;-56
2024/01/13 16:13:22;;;;;;;;;;;;;;;;;;5032037;28;21022;-56
2024/01/13 16:15:50;;;;;;;;;;;;;;;;;;5032029;28;19988;-56
2024/01/13 16:18:16;;;;;;;;;;;;;;;;;;5024853;28;19924;-56
2024/01/13 16:20:42;;;;;;;;;;;;;;;;;;5031503;28;19936;-55
2024/01/13 16:23:08;;;;;;;;;;;;;;;;;;5032004;28;20385;-54
2024/01/13 16:25:34;;;;;;;;;;;;;;;;;;5038291;28;19963;-53
2024/01/13 16:28:00;;;;;;;;;;;;;;;;;;5032031;28;20016;-55
2024/01/13 16:30:26;;;;;;;;;;;;;;;;;;5031490;28;19947;-54
2024/01/13 16:32:52;;;;;;;;;;;;;;;;;;5031679;28;20396;-56
2024/01/13 16:35:18;;;;;;;;;;;;;;;;;;5031147;28;19909;-55
2024/01/13 16:37:44;;;;;;;;;;;;;;;;;;5034419;28;19952;-56